PWSweather.com
Personal Weather Stations
Station Observations
KTXDALLA3
Prestonwood, Dallas, TX 75248

PrestonwoodDallas, TX 75248

Lat: 32.9588078, Lon: -96.7997302

Elevation: 598

Station Type: Davis

http://northdallasweather.com/index.php

Latest ConditionsUpdated 10:00:00 AM CDT Friday, Aug 17, 2018
Currently Today's Max Today's Min Today's Average
Temperature 87.8°F31.0°C 87.8°F31.0°C 82.1°F27.8°C 84.6°F29.2°C
Dew Point 73.2°F22.9°C 74.2°F23.4°C 70.5°F21.4°C 72.4°F22.4°C
Winds 2.3 mph WSW3.7 kmh WSW 5.8 mph -9.3 kmh - - 2.0 mph 3.2 kmh
Wind Gusts 3.5 mph5.6 kmh 8.1 mph13.0 kmh - -
Humidity 62% 69% 62% 67%
Pressure 30.04 in1017.3 mb 30.04 in1017.3 mb 29.98 in1015.2 mb -
Hour Temp Dew Point Humidity Winds Wind Gusts Pressure Precip Precip Rate Daily Precip Total
10:00 AM 87.8°F31.0°C 73.2°F22.9°C 62% 2.3 mph WSW3.7 kmh WSW 3.5 mph5.6 kmh 30.04 in1017.3 mb - 0.00 in0.0 mm 0.00 in0.0 mm
09:30 AM 86.8°F30.4°C 73.2°F22.9°C 64% 2.3 mph S3.7 kmh S 4.6 mph7.4 kmh 30.03 in1016.9 mb - 0.00 in0.0 mm 0.00 in0.0 mm
09:00 AM 85.4°F29.7°C 72.7°F22.6°C 66% Calm Calm 1.2 mph1.9 kmh 30.02 in1016.6 mb - 0.00 in0.0 mm 0.00 in0.0 mm
08:30 AM 84.4°F29.1°C 72.7°F22.6°C 68% Calm Calm 1.2 mph1.9 kmh 30.02 in1016.6 mb - 0.00 in0.0 mm 0.00 in0.0 mm
08:00 AM 83.1°F28.4°C 71.9°F22.2°C 69% 1.2 mph SW1.9 kmh SW 1.2 mph1.9 kmh 30.02 in1016.6 mb - 0.00 in0.0 mm 0.00 in0.0 mm
07:30 AM 82.2°F27.9°C 71.0°F21.7°C 69% 3.5 mph S5.6 kmh S 4.6 mph7.4 kmh 30.01 in1016.3 mb - 0.00 in0.0 mm 0.00 in0.0 mm
07:00 AM 82.1°F27.8°C 70.5°F21.4°C 68% 1.2 mph SW1.9 kmh SW 3.5 mph5.6 kmh 30.00 in1015.9 mb - 0.00 in0.0 mm 0.00 in0.0 mm
06:30 AM 82.6°F28.1°C 70.6°F21.4°C 67% 1.2 mph WSW1.9 kmh WSW 4.6 mph7.4 kmh 30.00 in1015.9 mb - 0.00 in0.0 mm 0.00 in0.0 mm
06:00 AM 83.2°F28.4°C 70.7°F21.5°C 66% 2.3 mph SW3.7 kmh SW 3.5 mph5.6 kmh 30.00 in1015.9 mb - 0.00 in0.0 mm 0.00 in0.0 mm
05:30 AM 83.6°F28.7°C 71.0°F21.7°C 66% 3.5 mph WSW5.6 kmh WSW 8.1 mph13.0 kmh 29.98 in1015.2 mb - 0.00 in0.0 mm 0.00 in0.0 mm
05:00 AM 83.8°F28.8°C 71.2°F21.8°C 66% 3.5 mph SSW5.6 kmh SSW 6.9 mph11.1 kmh 29.98 in1015.2 mb - 0.00 in0.0 mm 0.00 in0.0 mm
04:30 AM 84.0°F28.9°C 72.3°F22.4°C 68% 2.3 mph SE3.7 kmh SE 4.6 mph7.4 kmh 29.98 in1015.2 mb - 0.00 in0.0 mm 0.00 in0.0 mm
04:00 AM 84.6°F29.2°C 73.3°F22.9°C 69% 2.3 mph SE3.7 kmh SE 3.5 mph5.6 kmh 29.98 in1015.2 mb - 0.00 in0.0 mm 0.00 in0.0 mm
03:30 AM 85.0°F29.4°C 73.7°F23.2°C 69% 3.5 mph SW5.6 kmh SW 4.6 mph7.4 kmh 29.98 in1015.2 mb - 0.00 in0.0 mm 0.00 in0.0 mm
03:00 AM 85.5°F29.7°C 74.2°F23.4°C 69% 5.8 mph SSW9.3 kmh SSW 6.9 mph11.1 kmh 29.99 in1015.6 mb - 0.00 in0.0 mm 0.00 in0.0 mm
02:30 AM 85.9°F29.9°C 74.1°F23.4°C 68% 2.3 mph S3.7 kmh S 3.5 mph5.6 kmh 29.98 in1015.2 mb - 0.00 in0.0 mm 0.00 in0.0 mm
02:00 AM 85.9°F29.9°C 73.6°F23.1°C 67% 3.5 mph SE5.6 kmh SE 3.5 mph5.6 kmh 29.98 in1015.2 mb - 0.00 in0.0 mm 0.00 in0.0 mm
01:30 AM 85.4°F29.7°C 73.2°F22.9°C 67% 1.2 mph SSE1.9 kmh SSE 3.5 mph5.6 kmh 29.98 in1015.2 mb - 0.00 in0.0 mm 0.00 in0.0 mm
01:00 AM 84.4°F29.1°C 73.1°F22.8°C 69% Calm Calm 1.2 mph1.9 kmh 29.98 in1015.2 mb - 0.00 in0.0 mm 0.00 in0.0 mm
12:30 AM 85.0°F29.4°C 72.8°F22.7°C 67% Calm Calm -- 29.98 in1015.2 mb - 0.00 in0.0 mm 0.00 in0.0 mm
12:00 AM 85.5°F29.7°C 72.4°F22.4°C 65% Calm Calm -- 29.98 in1015.2 mb - 0.00 in0.0 mm 0.00 in0.0 mm